createdAt,value
2023-02-18T00:01:31.249Z,7.53
2023-02-18T00:04:35.176Z,6.97
2023-02-18T00:07:42.528Z,6.10
2023-02-18T00:10:48.618Z,7.18
2023-02-18T00:13:56.063Z,6.53
2023-02-18T00:16:59.882Z,6.50
2023-02-18T00:20:06.884Z,7.18
2023-02-18T00:23:10.678Z,8.98
2023-02-18T00:26:20.407Z,9.70
2023-02-18T00:29:24.459Z,11.55
2023-02-18T00:32:30.338Z,11.52
2023-02-18T00:35:34.185Z,14.18
2023-02-18T00:38:40.198Z,14.40
2023-02-18T00:44:51.581Z,15.73
2023-02-18T00:47:55.419Z,18.05
2023-02-18T00:51:02.040Z,19.10
2023-02-18T00:54:05.939Z,18.35
2023-02-18T00:57:13.866Z,19.60
2023-02-18T01:00:18.485Z,21.85
2023-02-18T01:03:25.270Z,22.33
2023-02-18T01:06:29.490Z,22.75
2023-02-18T01:09:35.310Z,24.02
2023-02-18T01:12:41.082Z,23.50
2023-02-18T01:15:48.345Z,22.85
2023-02-18T01:18:57.774Z,26.27
2023-02-18T01:22:06.157Z,25.10
2023-02-18T01:25:13.155Z,24.33
2023-02-18T01:28:24.657Z,23.95
2023-02-18T01:31:28.635Z,25.15
2023-02-18T01:34:35.628Z,24.15
2023-02-18T01:37:39.755Z,25.60
2023-02-18T01:40:52.609Z,25.88
2023-02-18T01:44:19.031Z,27.08
2023-02-18T01:47:24.960Z,25.77
2023-02-18T01:50:37.308Z,26.52
2023-02-18T01:53:50.131Z,26.25
2023-02-18T01:56:58.970Z,25.45
2023-02-18T02:00:11.797Z,26.55
2023-02-18T02:03:23.821Z,26.98
2023-02-18T02:06:29.925Z,24.63
2023-02-18T02:09:35.637Z,27.25
2023-02-18T02:12:58.268Z,24.25
2023-02-18T02:16:13.116Z,25.20
2023-02-18T02:19:44.792Z,25.23
2023-02-18T02:23:08.933Z,27.08
2023-02-18T02:26:38.212Z,24.92
2023-02-18T02:30:09.058Z,26.58
2023-02-18T02:33:50.269Z,26.50
2023-02-18T02:37:01.021Z,26.20
2023-02-18T02:40:21.763Z,25.83
2023-02-18T02:43:33.227Z,25.15
2023-02-18T02:46:45.106Z,25.40
2023-02-18T02:49:54.235Z,23.58
2023-02-18T02:53:13.012Z,24.25
2023-02-18T02:56:17.931Z,23.42
2023-02-18T02:59:27.798Z,25.45
2023-02-18T03:02:42.066Z,24.55
2023-02-18T03:06:04.616Z,24.05
2023-02-18T03:09:17.963Z,23.88
2023-02-18T03:12:31.367Z,24.08
2023-02-18T03:15:41.422Z,24.67
2023-02-18T03:18:53.138Z,25.00
2023-02-18T03:22:01.404Z,22.48
2023-02-18T03:25:11.725Z,23.95
2023-02-18T03:28:21.063Z,23.10
2023-02-18T03:31:30.063Z,21.92
2023-02-18T03:34:39.651Z,21.65
2023-02-18T03:37:50.087Z,21.33
2023-02-18T03:40:55.939Z,22.10
2023-02-18T03:44:03.641Z,22.40
2023-02-18T03:47:07.912Z,20.33
2023-02-18T03:50:13.764Z,20.50
2023-02-18T03:53:17.649Z,18.90
2023-02-18T03:56:25.604Z,17.63
2023-02-18T03:59:29.379Z,16.33
2023-02-18T04:02:35.638Z,17.23
2023-02-18T04:05:39.425Z,15.45
2023-02-18T04:08:45.820Z,17.95
2023-02-18T04:11:51.585Z,17.13
2023-02-18T04:14:57.434Z,18.48
2023-02-18T04:18:01.280Z,18.83
2023-02-18T04:21:07.648Z,18.80
2023-02-18T04:24:11.447Z,18.83
2023-02-18T04:27:19.301Z,17.40
2023-02-18T04:30:23.572Z,18.70
2023-02-18T04:33:29.666Z,20.38
2023-02-18T04:36:33.754Z,20.77
2023-02-18T04:39:39.647Z,20.55
2023-02-18T04:42:45.433Z,19.63
2023-02-18T04:45:51.626Z,21.58
2023-02-18T04:48:55.591Z,19.70
2023-02-18T04:52:01.467Z,20.25
2023-02-18T04:55:05.885Z,19.58
2023-02-18T04:58:13.634Z,18.70
2023-02-18T05:01:17.555Z,19.05
2023-02-18T05:04:23.493Z,16.77
2023-02-18T05:10:36.710Z,15.63
2023-02-18T05:13:42.466Z,15.90
2023-02-18T05:16:48.341Z,14.80
2023-02-18T05:22:57.923Z,13.23
2023-02-18T05:29:09.293Z,11.68
2023-02-18T05:32:13.156Z,14.02
2023-02-18T05:35:19.142Z,13.40
2023-02-18T05:41:28.780Z,10.70
2023-02-18T05:47:40.247Z,10.13
2023-02-18T05:53:49.791Z,8.77
2023-02-18T06:00:01.365Z,6.65
2023-02-18T06:03:05.380Z,6.72
2023-02-18T06:06:12.063Z,6.53
2023-02-18T06:09:16.077Z,7.25
2023-02-18T06:12:21.996Z,6.10
2023-02-18T06:18:33.411Z,4.95
2023-02-18T06:24:43.215Z,3.53
2023-02-18T06:27:47.071Z,3.78
2023-02-18T06:30:55.017Z,3.05
2023-02-18T06:33:59.034Z,3.05
2023-02-18T06:37:04.952Z,3.10
2023-02-18T06:43:15.337Z,3.05
2023-02-18T06:46:21.153Z,2.38
2023-02-18T06:49:27.069Z,2.80
2023-02-18T06:55:39.182Z,2.58
2023-02-18T06:58:43.042Z,2.97
2023-02-18T07:01:50.845Z,3.17
2023-02-18T07:04:54.987Z,3.13
2023-02-18T07:08:00.949Z,2.65
2023-02-18T07:14:10.598Z,2.53
2023-02-18T07:17:16.481Z,2.83
2023-02-18T07:20:23.114Z,2.90
2023-02-18T07:23:27.127Z,2.67
2023-02-18T07:26:32.992Z,3.33
2023-02-18T07:32:44.700Z,3.45
2023-02-18T07:35:48.524Z,4.03
2023-02-18T07:38:54.357Z,4.82
2023-02-18T07:41:58.244Z,5.53
2023-02-18T07:45:04.088Z,7.03
2023-02-18T07:48:10.247Z,7.40
2023-02-18T07:51:16.296Z,7.10
2023-02-18T07:57:26.067Z,8.90
2023-02-18T08:00:30.189Z,8.95
2023-02-18T08:03:38.607Z,9.13
2023-02-18T08:06:45.510Z,10.00
2023-02-18T08:09:52.082Z,9.30
2023-02-18T08:12:56.137Z,9.45
2023-02-18T08:16:02.095Z,10.00
2023-02-18T08:19:08.026Z,9.30
2023-02-18T08:22:13.830Z,8.20
2023-02-18T08:25:28.993Z,8.10
2023-02-18T08:28:35.827Z,6.70
2023-02-18T08:34:47.529Z,6.43
2023-02-18T08:37:53.383Z,4.82
2023-02-18T08:41:04.243Z,4.47
2023-02-18T08:44:08.017Z,4.63
2023-02-18T08:48:13.728Z,4.72
2023-02-18T08:50:39.817Z,5.13
2023-02-18T08:53:46.623Z,4.72
2023-02-18T08:56:50.910Z,4.70
2023-02-18T08:59:56.894Z,5.47
2023-02-18T09:06:09.087Z,5.45
2023-02-18T09:09:13.177Z,5.90
2023-02-18T09:12:19.058Z,6.60
2023-02-18T09:18:28.620Z,5.88
2023-02-18T09:24:42.641Z,6.13
2023-02-18T09:27:46.501Z,5.82
2023-02-18T09:30:53.191Z,6.32
2023-02-18T09:33:59.388Z,6.47
2023-02-18T09:37:07.368Z,6.60
2023-02-18T09:40:23.616Z,6.40
2023-02-18T09:43:34.196Z,7.43
2023-02-18T09:46:42.200Z,5.88
2023-02-18T09:49:51.045Z,4.97
2023-02-18T09:52:57.377Z,4.45
2023-02-18T09:56:03.747Z,4.60
2023-02-18T09:59:12.045Z,4.13
2023-02-18T10:02:19.888Z,3.95
2023-02-18T10:05:25.466Z,3.85
2023-02-18T10:08:36.779Z,4.47
2023-02-18T10:11:44.085Z,3.97
2023-02-18T10:14:52.168Z,3.92
2023-02-18T10:17:58.418Z,7.18
2023-02-18T10:21:09.009Z,5.65
2023-02-18T10:24:27.006Z,3.08
2023-02-18T10:27:35.554Z,3.80
2023-02-18T10:30:43.698Z,3.67
2023-02-18T10:33:58.876Z,3.65
2023-02-18T10:37:10.336Z,3.80
2023-02-18T10:40:22.731Z,3.30
2023-02-18T10:43:36.158Z,3.72
2023-02-18T10:46:56.032Z,3.55
2023-02-18T10:50:02.179Z,2.65
2023-02-18T10:53:15.215Z,3.97
2023-02-18T10:56:39.252Z,3.47
2023-02-18T10:59:57.306Z,3.00
2023-02-18T11:03:17.628Z,3.72
2023-02-18T11:06:28.919Z,3.05
2023-02-18T11:09:41.509Z,3.30
2023-02-18T11:12:52.295Z,3.15
2023-02-18T11:16:03.625Z,2.75
2023-02-18T11:19:34.201Z,3.80
2023-02-18T11:22:40.515Z,3.80
2023-02-18T11:26:00.076Z,3.92
2023-02-18T11:29:10.852Z,5.47
2023-02-18T11:32:17.283Z,3.75
2023-02-18T11:35:23.844Z,4.15
2023-02-18T11:38:36.486Z,3.63
2023-02-18T11:41:44.058Z,5.32
2023-02-18T11:44:57.633Z,4.47
2023-02-18T11:48:03.093Z,5.22
2023-02-18T11:51:17.690Z,3.50
2023-02-18T11:54:29.324Z,3.78
2023-02-18T11:57:38.006Z,4.13
2023-02-18T12:00:45.702Z,3.22
2023-02-18T12:03:58.321Z,3.80
2023-02-18T12:07:14.617Z,4.03
2023-02-18T12:10:27.180Z,4.07
2023-02-18T12:13:36.422Z,3.33
2023-02-18T12:16:55.800Z,3.47
2023-02-18T12:20:20.208Z,3.88
2023-02-18T12:23:33.597Z,3.72
2023-02-18T12:26:48.347Z,2.95
2023-02-18T12:30:29.732Z,3.00
2023-02-18T12:33:48.162Z,3.97
2023-02-18T12:37:04.298Z,3.05
2023-02-18T12:40:36.576Z,4.05
2023-02-18T12:43:57.801Z,3.10
2023-02-18T12:47:30.068Z,2.35
2023-02-18T12:50:59.471Z,2.55
2023-02-18T12:54:44.199Z,3.28
2023-02-18T12:57:58.058Z,2.28
2023-02-18T13:01:26.775Z,3.15
2023-02-18T13:04:49.395Z,2.20
2023-02-18T13:08:12.270Z,3.38
2023-02-18T13:11:28.626Z,2.55
2023-02-18T13:14:36.017Z,2.80
2023-02-18T13:17:44.497Z,2.78
2023-02-18T13:20:51.152Z,4.40
2023-02-18T13:24:02.752Z,3.05
2023-02-18T13:27:16.499Z,2.60
2023-02-18T13:30:29.953Z,3.38
2023-02-18T13:33:40.747Z,3.40
2023-02-18T13:36:56.126Z,3.72
2023-02-18T13:40:03.219Z,3.03
2023-02-18T13:43:30.290Z,2.65
2023-02-18T13:46:50.373Z,4.00
2023-02-18T13:49:56.808Z,1.83
2023-02-18T13:53:17.283Z,2.40
2023-02-18T13:56:31.086Z,2.65
2023-02-18T13:59:39.346Z,2.65
2023-02-18T14:02:59.242Z,6.07
2023-02-18T14:06:03.782Z,2.65
2023-02-18T14:09:38.349Z,2.63
2023-02-18T14:13:02.674Z,1.80
2023-02-18T14:16:10.311Z,2.55
2023-02-18T14:19:29.584Z,2.25
2023-02-18T14:22:46.415Z,2.78
2023-02-18T14:25:56.545Z,2.35
2023-02-18T14:29:08.914Z,2.38
2023-02-18T14:32:14.853Z,2.80
2023-02-18T14:35:29.200Z,2.15
2023-02-18T14:38:43.275Z,2.53
2023-02-18T14:41:57.263Z,2.35
2023-02-18T14:45:18.678Z,2.05
2023-02-18T14:48:43.757Z,2.50
2023-02-18T14:51:49.397Z,2.10
2023-02-18T14:54:55.862Z,2.47
2023-02-18T14:58:03.425Z,2.70
2023-02-18T15:01:20.053Z,3.72
2023-02-18T15:04:25.268Z,3.38
2023-02-18T15:07:31.072Z,2.70
2023-02-18T15:10:40.550Z,2.65
2023-02-18T15:13:47.966Z,3.67
2023-02-18T15:16:54.558Z,1.83
2023-02-18T15:20:06.526Z,2.17
2023-02-18T15:23:13.506Z,2.13
2023-02-18T15:26:19.728Z,2.53
2023-02-18T15:29:26.206Z,2.80
2023-02-18T15:32:35.147Z,2.50
2023-02-18T15:35:43.426Z,2.38
2023-02-18T15:38:49.600Z,1.85
2023-02-18T15:41:56.838Z,2.28
2023-02-18T15:45:06.308Z,2.13
2023-02-18T15:48:25.243Z,2.40
2023-02-18T15:51:33.140Z,2.28
2023-02-18T15:54:41.568Z,1.77
2023-02-18T15:57:47.658Z,2.15
2023-02-18T16:00:53.688Z,1.70
2023-02-18T16:04:01.620Z,1.90
2023-02-18T16:07:19.881Z,2.20
2023-02-18T16:10:37.551Z,1.58
2023-02-18T16:13:49.018Z,2.22
2023-02-18T16:17:09.700Z,2.92
2023-02-18T16:20:26.708Z,2.20
2023-02-18T16:23:36.827Z,1.67
2023-02-18T16:26:45.382Z,2.42
2023-02-18T16:29:53.261Z,1.90
2023-02-18T16:32:57.921Z,1.90
2023-02-18T16:36:06.289Z,1.77
2023-02-18T16:39:11.869Z,1.67
2023-02-18T16:42:17.823Z,2.22
2023-02-18T16:48:31.296Z,2.70
2023-02-18T16:51:37.169Z,2.15
2023-02-18T16:54:43.094Z,2.17
2023-02-18T16:57:48.400Z,3.80
2023-02-18T17:00:54.579Z,2.55
2023-02-18T17:03:59.610Z,2.25
2023-02-18T17:07:11.933Z,1.88
2023-02-18T17:10:16.484Z,1.95
2023-02-18T17:13:25.676Z,1.80
2023-02-18T17:16:30.063Z,1.98
2023-02-18T17:19:35.958Z,2.03
2023-02-18T17:22:42.123Z,2.33
2023-02-18T17:25:48.428Z,2.03
2023-02-18T17:28:53.210Z,3.40
2023-02-18T17:31:59.523Z,2.15
2023-02-18T17:35:03.767Z,2.05
2023-02-18T17:38:15.218Z,3.38
2023-02-18T17:41:19.236Z,1.80
2023-02-18T17:44:25.770Z,2.50
2023-02-18T17:47:29.600Z,2.45
2023-02-18T17:50:35.475Z,2.58
2023-02-18T17:53:41.221Z,3.28
2023-02-18T17:56:47.853Z,2.05
2023-02-18T17:59:51.711Z,3.13
2023-02-18T18:02:57.810Z,3.95
2023-02-18T18:06:03.882Z,2.78
2023-02-18T18:09:11.863Z,2.65
2023-02-18T18:12:17.334Z,2.70
2023-02-18T18:15:30.345Z,2.38
2023-02-18T18:18:36.256Z,2.83
2023-02-18T18:21:42.161Z,3.70
2023-02-18T18:24:49.324Z,3.10
2023-02-18T18:27:55.664Z,2.55
2023-02-18T18:31:01.489Z,3.20
2023-02-18T18:34:07.380Z,3.55
2023-02-18T18:37:12.462Z,3.65
2023-02-18T18:40:21.651Z,3.78
2023-02-18T18:43:27.583Z,3.38
2023-02-18T18:46:33.542Z,3.40
2023-02-18T18:52:44.429Z,3.53
2023-02-18T18:55:51.428Z,4.13
2023-02-18T18:58:57.282Z,3.47
2023-02-18T19:02:01.159Z,4.00
2023-02-18T19:05:07.538Z,4.45
2023-02-18T19:08:13.567Z,4.15
2023-02-18T19:11:21.406Z,4.40
2023-02-18T19:14:25.214Z,4.38
2023-02-18T19:17:30.995Z,7.10
2023-02-18T19:20:37.042Z,4.80
2023-02-18T19:23:42.923Z,4.93
2023-02-18T19:26:48.661Z,5.40
2023-02-18T19:29:55.654Z,4.85
2023-02-18T19:33:01.185Z,4.50
2023-02-18T19:36:11.689Z,4.95
2023-02-18T19:39:15.519Z,5.57
2023-02-18T19:42:23.337Z,6.63
2023-02-18T19:45:27.293Z,6.32
2023-02-18T19:48:33.117Z,6.75
2023-02-18T19:51:36.920Z,7.18
2023-02-18T19:54:42.770Z,8.73
2023-02-18T19:57:48.488Z,9.40
2023-02-18T20:00:54.549Z,9.98
2023-02-18T20:03:58.686Z,10.60
2023-02-18T20:07:04.779Z,10.55
2023-02-18T20:10:09.412Z,10.68
2023-02-18T20:13:17.189Z,11.07
2023-02-18T20:16:21.038Z,11.93
2023-02-18T20:19:31.898Z,11.18
2023-02-18T20:22:36.056Z,12.48
2023-02-18T20:25:41.885Z,11.85
2023-02-18T20:28:47.689Z,12.85
2023-02-18T20:31:53.802Z,12.23
2023-02-18T20:34:58.115Z,10.68
2023-02-18T20:38:04.005Z,11.18
2023-02-18T20:41:09.411Z,9.77
2023-02-18T20:44:18.763Z,8.50
2023-02-18T20:47:22.591Z,9.35
2023-02-18T20:50:28.546Z,8.30
2023-02-18T20:56:39.377Z,7.78
2023-02-18T20:59:45.321Z,8.32
2023-02-18T21:02:51.356Z,8.95
2023-02-18T21:09:04.231Z,9.68
2023-02-18T21:15:17.166Z,10.85
2023-02-18T21:18:21.108Z,12.60
2023-02-18T21:21:27.293Z,13.77
2023-02-18T21:24:32.797Z,14.43
2023-02-18T21:27:38.660Z,14.48
2023-02-18T21:30:46.353Z,16.20
2023-02-18T21:33:52.776Z,16.60
2023-02-18T21:36:56.638Z,17.13
2023-02-18T21:40:02.463Z,16.95
2023-02-18T21:43:06.264Z,17.40
2023-02-18T21:46:16.595Z,19.00
2023-02-18T21:49:20.494Z,19.27
2023-02-18T21:52:28.023Z,21.80
2023-02-18T21:55:31.901Z,19.65
2023-02-18T21:58:37.778Z,19.00
2023-02-18T22:01:43.898Z,19.80
2023-02-18T22:04:52.072Z,19.42
2023-02-18T22:07:55.980Z,20.33
2023-02-18T22:11:01.843Z,20.20
2023-02-18T22:14:05.640Z,19.77
2023-02-18T22:17:13.697Z,17.73
2023-02-18T22:20:17.498Z,17.25
2023-02-18T22:23:23.358Z,16.02
2023-02-18T22:26:27.240Z,16.77
2023-02-18T22:29:34.881Z,17.30
2023-02-18T22:32:40.664Z,15.27
2023-02-18T22:35:46.520Z,15.73
2023-02-18T22:38:51.138Z,14.80
2023-02-18T22:41:57.082Z,14.40
2023-02-18T22:45:02.217Z,14.07
2023-02-18T22:48:10.035Z,14.55
2023-02-18T22:51:16.250Z,13.82
2023-02-18T22:54:22.668Z,13.82
2023-02-18T22:57:26.603Z,12.88
2023-02-18T23:00:32.458Z,13.30
2023-02-18T23:03:38.254Z,11.77
2023-02-18T23:06:46.106Z,12.50
2023-02-18T23:09:50.024Z,11.50
2023-02-18T23:12:56.644Z,12.02
2023-02-18T23:16:04.896Z,10.73
2023-02-18T23:19:12.796Z,11.15
2023-02-18T23:22:18.677Z,9.52
2023-02-18T23:25:24.592Z,9.73
2023-02-18T23:31:36.950Z,8.02
2023-02-18T23:34:42.832Z,8.20
2023-02-18T23:38:01.855Z,7.53
2023-02-18T23:41:05.972Z,6.97
2023-02-18T23:44:14.186Z,7.65
2023-02-18T23:47:18.060Z,8.70
2023-02-18T23:50:26.010Z,9.60
2023-02-18T23:53:31.500Z,10.65
2023-02-18T23:56:37.450Z,9.77
